^^
Meteo Knjazevac Station Historical Data
Daily Summary for January 18, 2021 Units:  English    Metric   Both
Daily Weekly Monthly Yearly Custom
  High: Low: Average:
Temperature: 27.9 °F 15.1 °F 22.5 °F
Dew Point: 22.1 °F 13.4 °F 18.9 °F
Humidity: 96% 73% 86%
Wind Speed: 9mph 0mph 3.5mph
Wind Gust: 18mph - -
Wind- - WSW
Pressure: 30.29 in 30.15 in -
Precipitation: 0.00 in    
Historical Graphs
 
 
Tabular Data for January 18, 2021
Time Temperature Dew Point Pressure Wind Wind Speed Wind Gust Humidity Rainfall Rate (Hourly) solar Conditions
00:00 21.2 °F 20.2 °F 30.15 in NW 1 mph 3 mph 96% 0.00 in 0 W/m2
00:10 21.3 °F 20.4 °F 30.16 in North 1 mph 2 mph 96% 0.00 in 0 W/m2
00:20 21.4 °F 20.4 °F 30.16 in West 1 mph 2 mph 96% 0.00 in 0 W/m2
00:30 21.2 °F 20.2 °F 30.16 in West 1 mph 2 mph 96% 0.00 in 0 W/m2
00:40 21 °F 20.1 °F 30.16 in Calm   2 mph 96% 0.00 in 0 W/m2
00:50 20.9 °F 19.9 °F 30.17 in Calm   2 mph 96% 0.00 in 0 W/m2
01:00 20.7 °F 19.5 °F 30.17 in Calm     95% 0.00 in 0 W/m2
01:10 20.3 °F 19.1 °F 30.17 in North 1 mph 2 mph 95% 0.00 in 0 W/m2
01:20 20 °F 18.8 °F 30.17 in Calm   1 mph 95% 0.00 in 0 W/m2
01:30 19.8 °F 18.6 °F 30.18 in Calm   2 mph 95% 0.00 in 0 W/m2
01:40 19.6 °F 18.4 °F 30.18 in Calm   1 mph 95% 0.00 in 0 W/m2
01:50 18.9 °F 17.5 °F 30.18 in WNW 1 mph 2 mph 94% 0.00 in 0 W/m2
02:00 18.3 °F 16.9 °F 30.18 in Calm   2 mph 94% 0.00 in 0 W/m2
02:10 17.8 °F 16.3 °F 30.18 in Calm   2 mph 94% 0.00 in 0 W/m2
02:20 17.6 °F 16.2 °F 30.18 in Calm   2 mph 94% 0.00 in 0 W/m2
02:40 16.7 °F 15 °F 30.19 in Calm   2 mph 93% 0.00 in 0 W/m2
02:50 16.2 °F 14.5 °F 30.19 in Calm   2 mph 93% 0.00 in 0 W/m2
03:00 16.2 °F 14.7 °F 30.19 in NNW 1 mph 3 mph 94% 0.00 in 0 W/m2
03:10 16 °F 14.6 °F 30.19 in NW 1 mph 2 mph 94% 0.00 in 0 W/m2
03:20 15.8 °F 14.4 °F 30.19 in NNW 1 mph 3 mph 94% 0.00 in 0 W/m2
03:30 16 °F 14.8 °F 30.19 in NW 1 mph 2 mph 95% 0.00 in 0 W/m2
03:40 15.8 °F 14.4 °F 30.19 in WNW 1 mph 3 mph 94% 0.00 in 0 W/m2
03:50 15.8 °F 14.4 °F 30.19 in NW 1 mph 2 mph 94% 0.00 in 0 W/m2
04:00 15.8 °F 14.6 °F 30.19 in Calm   2 mph 95% 0.00 in 0 W/m2
04:10 16.2 °F 15 °F 30.19 in NW 1 mph 2 mph 95% 0.00 in 0 W/m2
04:20 16.2 °F 15 °F 30.19 in North 1 mph 2 mph 95% 0.00 in 0 W/m2
04:30 16.2 °F 15 °F 30.19 in WNW 2 mph 4 mph 95% 0.00 in 0 W/m2
04:40 16.2 °F 15 °F 30.19 in WNW 1 mph 3 mph 95% 0.00 in 0 W/m2
04:50 16.2 °F 15 °F 30.19 in West 1 mph 3 mph 95% 0.00 in 0 W/m2
05:00 16.2 °F 15 °F 30.19 in WNW 2 mph 3 mph 95% 0.00 in 0 W/m2
05:10 16.5 °F 15.3 °F 30.20 in West 2 mph 3 mph 95% 0.00 in 0 W/m2
05:30 16.2 °F 15 °F 30.20 in WNW 2 mph 4 mph 95% 0.00 in 0 W/m2
05:40 16.2 °F 14.7 °F 30.21 in West 1 mph 3 mph 94% 0.00 in 0 W/m2
05:50 15.8 °F 14.4 °F 30.21 in WNW 2 mph 3 mph 94% 0.00 in 0 W/m2
06:00 15.4 °F 13.8 °F 30.21 in WNW 2 mph 4 mph 93% 0.00 in 0 W/m2
06:10 15.4 °F 14 °F 30.21 in West 2 mph 4 mph 94% 0.00 in 0 W/m2
06:20 15.3 °F 13.8 °F 30.21 in WNW 2 mph 4 mph 94% 0.00 in 0 W/m2
06:30 15.1 °F 13.4 °F 30.21 in WNW 2 mph 4 mph 93% 0.00 in 0 W/m2
06:40 15.1 °F 13.7 °F 30.22 in WNW 2 mph 5 mph 94% 0.00 in 0 W/m2
06:50 15.6 °F 14.4 °F 30.22 in WNW 1 mph 4 mph 95% 0.00 in 0 W/m2
07:00 15.6 °F 14.5 °F 30.22 in WNW 2 mph 5 mph 95% 0.00 in 2 W/m2
07:10 15.4 °F 14 °F 30.22 in WNW 2 mph 7 mph 94% 0.00 in 5 W/m2
07:20 15.6 °F 14.2 °F 30.21 in West 1 mph 3 mph 94% 0.00 in 9 W/m2
07:30 16.2 °F 15 °F 30.22 in West 1 mph 2 mph 95% 0.00 in 15 W/m2
07:40 16.3 °F 15.2 °F 30.22 in West 1 mph 2 mph 95% 0.00 in 18 W/m2
07:50 16.5 °F 15.3 °F 30.22 in West 1 mph 3 mph 95% 0.00 in 24 W/m2
08:00 16.9 °F 15.7 °F 30.22 in West 1 mph 3 mph 95% 0.00 in 35 W/m2
08:10 17.2 °F 16.1 °F 30.23 in West 2 mph 3 mph 95% 0.00 in 38 W/m2
08:20 17.8 °F 16.6 °F 30.23 in WSW 3 mph 6 mph 95% 0.00 in 53 W/m2
08:30 18.5 °F 17.3 °F 30.23 in WSW 5 mph 7 mph 95% 0.00 in 66 W/m2
08:40 19.6 °F 18.4 °F 30.23 in WSW 5 mph 8 mph 95% 0.00 in 70 W/m2
08:50 20.6 °F 19.4 °F 30.24 in WSW 6 mph 10 mph 95% 0.00 in 74 W/m2
09:00 21.4 °F 19.9 °F 30.24 in SW 5 mph 10 mph 94% 0.00 in 69 W/m2
09:10 21.9 °F 20.2 °F 30.24 in SW 3 mph 7 mph 93% 0.00 in 78 W/m2
09:20 22.6 °F 20.4 °F 30.24 in SW 7 mph 11 mph 91% 0.00 in 80 W/m2
09:30 23.2 °F 20.4 °F 30.24 in WSW 6 mph 10 mph 89% 0.00 in 102 W/m2
09:40 23.5 °F 20.8 °F 30.24 in WSW 3 mph 10 mph 89% 0.00 in 96 W/m2
09:50 23.9 °F 20.9 °F 30.25 in SW 5 mph 10 mph 88% 0.00 in 93 W/m2
10:00 24.3 °F 20.7 °F 30.25 in SW 5 mph 13 mph 86% 0.00 in 102 W/m2
10:10 24.4 °F 20.9 °F 30.25 in SW 6 mph 9 mph 86% 0.00 in 111 W/m2
10:20 24.6 °F 20.8 °F 30.25 in WSW 6 mph 10 mph 85% 0.00 in 100 W/m2
10:30 24.8 °F 20.9 °F 30.25 in SW 5 mph 9 mph 85% 0.00 in 118 W/m2
10:40 25 °F 21.1 °F 30.25 in SW 5 mph 10 mph 85% 0.00 in 117 W/m2
10:50 25.2 °F 21.3 °F 30.24 in WSW 6 mph 13 mph 85% 0.00 in 133 W/m2
11:00 25.3 °F 21.5 °F 30.24 in SW 6 mph 12 mph 85% 0.00 in 134 W/m2
11:10 25.5 °F 21.9 °F 30.24 in SW 5 mph 10 mph 86% 0.00 in 138 W/m2
11:20 25.7 °F 22.1 °F 30.24 in SW 5 mph 8 mph 86% 0.00 in 164 W/m2
11:30 25.9 °F 22 °F 30.24 in SW 5 mph 10 mph 85% 0.00 in 138 W/m2
11:40 26.1 °F 21.9 °F 30.23 in WSW 3 mph 9 mph 84% 0.00 in 120 W/m2
11:50 26.2 °F 21.8 °F 30.23 in WSW 6 mph 9 mph 83% 0.00 in 140 W/m2
12:00 26.2 °F 21.8 °F 30.24 in WSW 6 mph 10 mph 83% 0.00 in 116 W/m2
12:10 26.4 °F 22 °F 30.23 in WSW 6 mph 10 mph 83% 0.00 in 134 W/m2
12:20 26.6 °F 21.3 °F 30.23 in West 5 mph 12 mph 80% 0.00 in 123 W/m2
12:30 26.6 °F 21 °F 30.24 in WSW 5 mph 10 mph 79% 0.00 in 126 W/m2
12:40 26.6 °F 20.4 °F 30.24 in WSW 7 mph 16 mph 77% 0.00 in 153 W/m2
12:50 26.6 °F 19.7 °F 30.23 in WSW 8 mph 16 mph 75% 0.00 in 164 W/m2
13:00 27 °F 20.1 °F 30.23 in WSW 6 mph 13 mph 75% 0.00 in 296 W/m2
13:10 27.3 °F 20.4 °F 30.23 in WSW 7 mph 15 mph 75% 0.00 in 200 W/m2
13:20 27.7 °F 20.8 °F 30.23 in WSW 8 mph 14 mph 75% 0.00 in 206 W/m2
13:30 27.7 °F 20.8 °F 30.23 in West 8 mph 15 mph 75% 0.00 in 196 W/m2
13:40 27.9 °F 20.6 °F 30.23 in West 9 mph 16 mph 74% 0.00 in 272 W/m2
13:50 27.3 °F 19.8 °F 30.23 in West 9 mph 17 mph 73% 0.00 in 198 W/m2
14:00 27.3 °F 20.1 °F 30.23 in WSW 8 mph 14 mph 74% 0.00 in 125 W/m2
14:10 27 °F 19.5 °F 30.23 in WSW 8 mph 17 mph 73% 0.00 in 123 W/m2
14:20 27 °F 19.8 °F 30.24 in WSW 7 mph 14 mph 74% 0.00 in 88 W/m2
14:30 27 °F 20.1 °F 30.24 in WSW 6 mph 13 mph 75% 0.00 in 85 W/m2
14:40 27.1 °F 20.3 °F 30.24 in WSW 6 mph 13 mph 75% 0.00 in 90 W/m2
14:50 27 °F 19.5 °F 30.24 in WSW 8 mph 18 mph 73% 0.00 in 79 W/m2
15:00 26.8 °F 19.3 °F 30.24 in WSW 8 mph 15 mph 73% 0.00 in 76 W/m2
15:10 26.8 °F 19.6 °F 30.24 in WSW 6 mph 12 mph 74% 0.00 in 63 W/m2
15:20 26.8 °F 21.1 °F 30.24 in SW 5 mph 10 mph 79% 0.00 in 46 W/m2
15:30 26.6 °F 21.3 °F 30.24 in WSW 3 mph 8 mph 80% 0.00 in 32 W/m2
15:40 26.6 °F 21 °F 30.24 in WSW 8 mph 12 mph 79% 0.00 in 19 W/m2
15:50 26.4 °F 21.1 °F 30.25 in WSW 6 mph 10 mph 80% 0.00 in 14 W/m2
16:00 26.2 °F 21.2 °F 30.25 in WSW 5 mph 9 mph 81% 0.00 in 8 W/m2
16:10 26.2 °F 21.2 °F 30.25 in WSW 6 mph 7 mph 81% 0.00 in 7 W/m2
16:20 26.1 °F 21 °F 30.25 in WSW 5 mph 7 mph 81% 0.00 in 3 W/m2
16:30 25.9 °F 20.9 °F 30.25 in WSW 5 mph 8 mph 81% 0.00 in 0 W/m2
16:40 25.9 °F 20.9 °F 30.25 in WSW 6 mph 9 mph 81% 0.00 in 0 W/m2
16:50 25.7 °F 20.7 °F 30.25 in SW 6 mph 9 mph 81% 0.00 in 0 W/m2
17:00 25.7 °F 21.3 °F 30.25 in WSW 5 mph 9 mph 83% 0.00 in 0 W/m2
17:10 25.5 °F 21.1 °F 30.25 in WSW 2 mph 5 mph 83% 0.00 in 0 W/m2
17:20 25.5 °F 21.1 °F 30.26 in WSW 2 mph 6 mph 83% 0.00 in 0 W/m2
17:30 25.5 °F 21.4 °F 30.26 in WSW 3 mph 5 mph 84% 0.00 in 0 W/m2
17:40 25.5 °F 21.3 °F 30.26 in WSW 2 mph 5 mph 84% 0.00 in 0 W/m2
17:50 25.3 °F 21.2 °F 30.27 in WSW 3 mph 6 mph 84% 0.00 in 0 W/m2
18:00 25.3 °F 21.2 °F 30.27 in WSW 3 mph 6 mph 84% 0.00 in 0 W/m2
18:10 25.3 °F 21.2 °F 30.27 in WSW 2 mph 6 mph 84% 0.00 in 0 W/m2
18:20 25.2 °F 21 °F 30.27 in WSW 1 mph 5 mph 84% 0.00 in 0 W/m2
18:30 25.2 °F 21 °F 30.27 in SW 1 mph 4 mph 84% 0.00 in 0 W/m2
18:40 25.2 °F 21.3 °F 30.27 in WSW 1 mph 3 mph 85% 0.00 in 0 W/m2
18:50 25 °F 20.8 °F 30.27 in SW 2 mph 6 mph 84% 0.00 in 0 W/m2
19:00 25.2 °F 20.7 °F 30.27 in WSW 3 mph 6 mph 83% 0.00 in 0 W/m2
19:10 25.2 °F 20.7 °F 30.27 in WSW 3 mph 7 mph 83% 0.00 in 0 W/m2
19:20 25.2 °F 20.1 °F 30.27 in WSW 3 mph 6 mph 81% 0.00 in 0 W/m2
19:30 25.2 °F 20.1 °F 30.27 in WSW 3 mph 6 mph 81% 0.00 in 0 W/m2
19:40 25.2 °F 20.1 °F 30.27 in WSW 5 mph 8 mph 81% 0.00 in 0 W/m2
19:50 25.2 °F 20.1 °F 30.27 in WSW 6 mph 8 mph 81% 0.00 in 0 W/m2
20:00 25 °F 20 °F 30.27 in WSW 5 mph 10 mph 81% 0.00 in 0 W/m2
20:10 25 °F 20.5 °F 30.27 in WSW 5 mph 8 mph 83% 0.00 in 0 W/m2
20:20 25 °F 20.5 °F 30.27 in SW 2 mph 6 mph 83% 0.00 in 0 W/m2
20:30 24.8 °F 19.8 °F 30.27 in SSW 3 mph 7 mph 81% 0.00 in 0 W/m2
20:40 24.8 °F 19.8 °F 30.27 in SW 5 mph 7 mph 81% 0.00 in 0 W/m2
20:50 24.8 °F 19.8 °F 30.28 in SW 3 mph 10 mph 81% 0.00 in 0 W/m2
21:00 24.8 °F 19.8 °F 30.28 in WSW 5 mph 8 mph 81% 0.00 in 0 W/m2
21:10 25 °F 20 °F 30.28 in WSW 5 mph 7 mph 81% 0.00 in 0 W/m2
21:20 24.8 °F 19.8 °F 30.28 in SW 2 mph 7 mph 81% 0.00 in 0 W/m2
21:30 24.8 °F 19.8 °F 30.28 in SW 3 mph 5 mph 81% 0.00 in 0 W/m2
21:40 24.6 °F 19.6 °F 30.28 in SW 2 mph 5 mph 81% 0.00 in 0 W/m2
21:50 24.6 °F 19.6 °F 30.28 in WSW 3 mph 5 mph 81% 0.00 in 0 W/m2
22:00 24.8 °F 19.8 °F 30.28 in WSW 2 mph 7 mph 81% 0.00 in 0 W/m2
22:10 24.6 °F 19.6 °F 30.28 in WSW 3 mph 6 mph 81% 0.00 in 0 W/m2
22:20 24.6 °F 19.6 °F 30.28 in WSW 3 mph 6 mph 81% 0.00 in 0 W/m2
22:30 24.6 °F 19.6 °F 30.28 in SW 5 mph 8 mph 81% 0.00 in 0 W/m2
22:40 24.6 °F 19.6 °F 30.29 in SW 3 mph 8 mph 81% 0.00 in 0 W/m2
22:50 24.6 °F 19.6 °F 30.29 in SW 5 mph 9 mph 81% 0.00 in 0 W/m2
23:00 24.8 °F 19.8 °F 30.29 in WSW 5 mph 8 mph 81% 0.00 in 0 W/m2
23:10 24.8 °F 19.8 °F 30.29 in WSW 5 mph 9 mph 81% 0.00 in 0 W/m2
23:20 24.8 °F 19.5 °F 30.29 in WSW 6 mph 10 mph 80% 0.00 in 0 W/m2
23:30 24.8 °F 19.5 °F 30.29 in WSW 3 mph 12 mph 80% 0.00 in 0 W/m2
23:40 24.8 °F 19.5 °F 30.29 in WSW 6 mph 8 mph 80% 0.00 in 0 W/m2
23:50 25 °F 19.7 °F 30.29 in SW 8 mph 12 mph 80% 0.00 in 0 W/m2
Knjazevac, Serbia
Compliments of Weather Underground - 2 mb